Time;durP1;ratioP1;P1;durP2;ratioP2;P2;SDS_P1;SDS_P2;PMS_P1;PMS_P2;Temp;Humidity;BMP_temperature;BMP_pressure;BME280_temperature;BME280_humidity;BME280_pressure;Samples;Min_cycle;Max_cycle;Signal;HPM_P1;HPM_P2
2022/01/19 00:01:24;;;;;;;747.73;670.60;;;0.90;99.90;;;;;;5084725;28;20455;-79
2022/01/19 00:03:51;;;;;;;757.67;680.83;;;1.10;99.90;;;;;;5084014;28;20446;-79
2022/01/19 00:06:18;;;;;;;755.70;676.83;;;1.00;99.90;;;;;;5063655;28;20444;-79
2022/01/19 00:08:45;;;;;;;754.13;674.83;;;1.00;99.90;;;;;;5064025;28;20470;-79
2022/01/19 00:11:12;;;;;;;770.70;692.77;;;1.00;99.90;;;;;;5084484;28;20457;-79
2022/01/19 00:13:40;;;;;;;783.20;705.23;;;0.80;99.90;;;;;;5084224;28;20446;-79
2022/01/19 00:16:07;;;;;;;780.53;702.63;;;0.80;99.90;;;;;;5063225;28;20443;-80
2022/01/19 00:18:35;;;;;;;760.17;679.83;;;0.70;99.90;;;;;;5062563;28;20467;-79
2022/01/19 00:21:01;;;;;;;767.37;686.83;;;0.70;99.90;;;;;;5081542;28;20451;-79
2022/01/19 00:23:28;;;;;;;769.40;688.70;;;0.90;99.90;;;;;;5083502;28;20474;-79
2022/01/19 00:25:56;;;;;;;775.33;694.13;;;0.90;99.90;;;;;;5065878;28;20447;-78
2022/01/19 00:28:23;;;;;;;773.80;691.67;;;1.00;99.90;;;;;;5063825;28;20479;-79
2022/01/19 00:30:52;;;;;;;775.50;695.10;;;1.00;99.90;;;;;;5064710;28;20475;-79
2022/01/19 00:33:19;;;;;;;778.73;700.70;;;1.10;99.90;;;;;;5064734;28;20492;-79
2022/01/19 00:35:46;;;;;;;775.67;697.77;;;1.40;99.90;;;;;;5080742;28;20966;-79
2022/01/19 00:38:13;;;;;;;780.93;701.03;;;1.40;99.90;;;;;;5083317;28;20474;-79
2022/01/19 00:40:41;;;;;;;786.87;706.13;;;1.30;99.90;;;;;;5067470;28;20455;-79
2022/01/19 00:43:08;;;;;;;779.47;698.37;;;1.20;99.90;;;;;;5064068;28;20476;-79
2022/01/19 00:45:35;;;;;;;775.80;695.47;;;1.20;99.90;;;;;;5078554;28;20450;-79
2022/01/19 00:48:03;;;;;;;776.93;697.10;;;1.30;99.90;;;;;;5082769;28;20471;-79
2022/01/19 00:50:31;;;;;;;777.87;697.20;;;1.40;99.90;;;;;;5069208;28;20467;-80
2022/01/19 00:52:58;;;;;;;782.70;702.57;;;1.20;99.90;;;;;;5063715;28;20470;-79
2022/01/19 00:55:26;;;;;;;788.13;707.37;;;1.20;99.90;;;;;;5076251;28;20782;-79
2022/01/19 00:57:54;;;;;;;785.10;703.50;;;1.10;99.90;;;;;;5082404;28;20473;-79
2022/01/19 01:00:22;;;;;;;773.73;692.07;;;1.10;99.90;;;;;;5070427;28;20451;-79
2022/01/19 01:02:49;;;;;;;773.57;691.60;;;1.00;99.90;;;;;;5062273;28;20458;-79
2022/01/19 01:05:18;;;;;;;773.33;693.40;;;1.00;99.90;;;;;;5062145;28;20455;-79
2022/01/19 01:07:45;;;;;;;769.10;689.10;;;0.90;99.90;;;;;;5062766;28;20447;-79
2022/01/19 01:10:16;;;;;;;771.77;689.67;;;0.90;99.90;;;;;;5068349;28;20529;-79
2022/01/19 01:12:46;;;;;;;767.93;686.03;;;1.10;99.90;;;;;;5066615;28;20474;-79
2022/01/19 01:15:30;;;;;;;775.70;693.53;;;1.30;99.90;;;;;;5062128;28;20508;-79
2022/01/19 01:20:44;;;;;;;773.77;696.13;;;1.40;99.90;;;;;;5062357;28;20459;-79
2022/01/19 01:23:11;;;;;;;768.97;688.97;;;1.40;99.90;;;;;;5063025;28;20971;-79
2022/01/19 01:25:39;;;;;;;772.10;693.20;;;1.40;99.90;;;;;;5079242;28;20976;-79
2022/01/19 01:28:07;;;;;;;767.37;688.83;;;1.50;99.90;;;;;;5081923;28;20496;-79
2022/01/19 01:30:34;;;;;;;776.20;695.80;;;1.50;99.90;;;;;;5066287;28;20451;-79
2022/01/19 01:33:01;;;;;;;791.07;709.37;;;1.50;99.90;;;;;;5061884;28;20479;-78
2022/01/19 01:35:28;;;;;;;791.83;710.47;;;1.20;99.90;;;;;;5062238;28;20963;-79
2022/01/19 01:37:58;;;;;;;783.67;702.13;;;1.10;99.90;;;;;;5060963;28;20455;-79
2022/01/19 01:40:26;;;;;;;784.63;702.83;;;1.10;99.90;;;;;;5062047;28;20232;-79
2022/01/19 01:42:54;;;;;;;771.57;690.27;;;0.90;99.90;;;;;;5062310;28;20520;-79
2022/01/19 01:45:26;;;;;;;769.03;687.97;;;0.90;99.90;;;;;;5073893;28;20457;-79
2022/01/19 01:48:02;;;;;;;786.10;704.83;;;1.00;99.90;;;;;;5081009;28;20865;-79
2022/01/19 01:53:29;;;;;;;776.87;696.17;;;1.10;99.90;;;;;;5020384;28;20504;-79
2022/01/19 01:56:01;;;;;;;763.87;683.30;;;1.20;99.90;;;;;;5054402;28;20618;-79
2022/01/19 01:58:29;;;;;;;773.30;691.60;;;1.40;99.90;;;;;;5062358;28;20482;-78
2022/01/19 02:00:57;;;;;;;775.20;693.33;;;1.70;99.90;;;;;;5081461;28;20446;-80
2022/01/19 02:03:27;;;;;;;778.73;697.23;;;1.80;99.90;;;;;;5084990;28;20446;-80
2022/01/19 02:09:01;;;;;;;792.50;710.30;;;2.20;99.90;;;;;;5020957;28;20628;-80
2022/01/19 02:15:48;;;;;;;790.97;709.70;;;2.50;99.90;;;;;;5072555;28;20450;-80
2022/01/19 02:22:50;;;;;;;793.87;720.97;;;2.80;99.90;;;;;;5083667;28;20434;-80
2022/01/19 02:25:21;;;;;;;817.70;744.47;;;3.00;99.90;;;;;;5070879;28;20489;-79
2022/01/19 02:42:07;;;;;;;801.87;734.87;;;2.80;99.90;;;;;;5083023;28;20464;-82
2022/01/19 02:50:13;;;;;;;788.40;722.10;;;2.60;99.90;;;;;;5063563;28;20482;-82
2022/01/19 02:53:25;;;;;;;789.47;722.77;;;2.60;99.90;;;;;;5067586;28;20466;-81
2022/01/19 02:59:10;;;;;;;780.77;712.57;;;2.70;99.90;;;;;;5065820;28;20464;-81
2022/01/19 03:10:24;;;;;;;764.47;695.77;;;2.70;99.90;;;;;;5006003;28;20438;-82
2022/01/19 03:13:06;;;;;;;765.63;697.57;;;2.80;99.90;;;;;;5062590;28;20510;-81
2022/01/19 03:15:33;;;;;;;769.73;702.80;;;2.90;99.90;;;;;;5063306;28;20513;-81
2022/01/19 03:18:00;;;;;;;766.10;699.77;;;2.90;99.90;;;;;;5081261;28;20990;-81
2022/01/19 03:20:29;;;;;;;770.10;705.17;;;2.90;99.90;;;;;;5079870;28;20462;-81
2022/01/19 03:23:02;;;;;;;784.27;721.30;;;3.00;99.90;;;;;;5062594;28;20456;-81
2022/01/19 03:25:36;;;;;;;782.43;720.10;;;3.00;99.90;;;;;;5062779;28;20483;-81
2022/01/19 03:28:03;;;;;;;775.50;712.50;;;3.10;99.90;;;;;;5080353;28;20553;-81
2022/01/19 03:30:30;;;;;;;774.60;713.10;;;3.20;99.90;;;;;;5084574;28;20454;-81
2022/01/19 03:32:57;;;;;;;771.17;710.57;;;3.20;99.90;;;;;;5081782;28;20474;-80
2022/01/19 03:35:38;;;;;;;774.27;713.97;;;3.30;99.90;;;;;;5083735;28;20457;-81
2022/01/19 03:41:53;;;;;;;771.70;713.40;;;3.40;99.90;;;;;;4981234;28;20914;-82
2022/01/19 03:50:56;;;;;;;777.33;722.03;;;3.40;99.90;;;;;;5042717;28;20451;-81
2022/01/19 03:56:06;;;;;;;770.30;716.57;;;3.50;99.90;;;;;;5040758;28;20442;-81
2022/01/19 03:59:01;;;;;;;770.80;718.77;;;3.40;99.90;;;;;;5081996;28;20490;-83
2022/01/19 04:01:37;;;;;;;763.87;713.97;;;3.50;99.90;;;;;;5072034;28;20443;-81
2022/01/19 04:05:02;;;;;;;;;;;;;;;;;;;;;
2022/01/19 04:07:44;;;;;;;747.07;700.10;;;3.50;99.90;;;;;;5050199;28;20452;-81
2022/01/19 04:10:48;;;;;;;724.03;680.43;;;3.60;99.90;;;;;;5072259;28;20446;-81
2022/01/19 04:13:56;;;;;;;726.27;682.93;;;3.60;99.90;;;;;;5083281;28;20473;-80
2022/01/19 04:16:25;;;;;;;728.80;684.63;;;3.60;99.90;;;;;;5060296;28;20502;-83
2022/01/19 04:19:07;;;;;;;725.60;682.70;;;3.60;99.90;;;;;;5058633;28;20502;-81
2022/01/19 04:21:48;;;;;;;717.23;676.63;;;3.70;99.90;;;;;;5077608;28;20497;-80
2022/01/19 04:24:15;;;;;;;726.43;684.93;;;3.70;99.90;;;;;;5075414;28;20457;-80
2022/01/19 04:26:48;;;;;;;680.83;644.43;;;3.70;99.90;;;;;;5054811;28;20819;-82
2022/01/19 04:29:17;;;;;;;656.17;622.37;;;3.70;99.90;;;;;;5055794;28;20475;-78
2022/01/19 04:34:32;;;;;;;564.03;538.20;;;3.90;99.90;;;;;;5061921;28;20486;-82
2022/01/19 04:37:25;;;;;;;531.27;507.63;;;4.00;99.90;;;;;;5066339;28;20474;-81
2022/01/19 04:45:58;;;;;;;438.50;421.33;;;4.20;99.90;;;;;;5080283;28;20477;-80
2022/01/19 05:04:06;;;;;;;390.53;375.87;;;4.20;99.90;;;;;;5018592;28;20460;-82
2022/01/19 05:06:37;;;;;;;404.07;388.77;;;4.10;99.90;;;;;;5068529;28;20451;-82
2022/01/19 05:09:08;;;;;;;399.77;384.67;;;4.20;99.90;;;;;;5075462;28;20521;-82
2022/01/19 05:14:19;;;;;;;376.97;362.30;;;4.10;99.90;;;;;;5065120;28;20510;-83
2022/01/19 05:16:45;;;;;;;428.93;411.50;;;4.00;99.90;;;;;;5060412;28;20450;-81
2022/01/19 05:19:13;;;;;;;436.73;419.33;;;4.00;99.90;;;;;;5068011;28;20866;-81
2022/01/19 05:21:40;;;;;;;433.27;415.77;;;4.00;99.90;;;;;;5058445;28;20482;-82
2022/01/19 05:24:07;;;;;;;446.40;428.30;;;4.00;99.90;;;;;;5093699;28;20450;-81
2022/01/19 05:26:36;;;;;;;453.60;435.77;;;3.90;99.90;;;;;;5062846;28;20940;-82
2022/01/19 05:29:03;;;;;;;447.97;429.53;;;3.90;99.90;;;;;;5058908;28;20478;-81
2022/01/19 05:31:30;;;;;;;424.33;407.40;;;3.90;99.90;;;;;;5057136;28;20959;-81
2022/01/19 05:34:19;;;;;;;434.93;417.93;;;3.90;99.90;;;;;;5058486;28;20476;-83
2022/01/19 05:36:49;;;;;;;430.47;413.30;;;3.90;99.90;;;;;;5063984;28;20447;-82
2022/01/19 05:39:19;;;;;;;444.87;426.97;;;3.90;99.90;;;;;;5080368;28;20545;-81
2022/01/19 05:41:46;;;;;;;410.63;394.23;;;3.90;99.90;;;;;;5074782;28;20451;-82
2022/01/19 05:44:13;;;;;;;367.23;352.80;;;3.90;99.90;;;;;;5081404;28;20482;-82
2022/01/19 05:46:40;;;;;;;372.90;358.40;;;3.90;99.90;;;;;;5084033;28;20439;-81
2022/01/19 05:49:07;;;;;;;370.87;356.43;;;3.90;99.90;;;;;;5073788;28;20525;-81
2022/01/19 05:51:33;;;;;;;369.33;355.00;;;4.00;99.90;;;;;;5071489;28;20460;-82
2022/01/19 05:54:03;;;;;;;375.03;360.50;;;3.80;99.90;;;;;;5082598;28;20482;-82
2022/01/19 05:56:30;;;;;;;376.73;362.43;;;3.90;99.90;;;;;;5067507;28;20443;-82
2022/01/19 05:58:57;;;;;;;380.57;365.77;;;4.00;99.90;;;;;;5084210;28;20530;-82
2022/01/19 06:01:24;;;;;;;361.20;347.30;;;3.90;99.90;;;;;;5068461;28;20454;-85
2022/01/19 06:03:52;;;;;;;364.90;350.60;;;3.90;99.90;;;;;;5083882;28;20443;-81
2022/01/19 06:06:20;;;;;;;367.50;353.33;;;3.80;99.90;;;;;;5068036;28;20451;-82
2022/01/19 06:08:58;;;;;;;371.90;357.20;;;3.90;99.90;;;;;;5076698;28;20470;-81
2022/01/19 06:11:27;;;;;;;391.43;376.23;;;4.00;99.90;;;;;;5064965;28;20455;-82
2022/01/19 06:13:54;;;;;;;339.33;326.47;;;3.90;99.90;;;;;;5078529;28;20474;-82
2022/01/19 06:16:20;;;;;;;315.23;303.33;;;3.90;99.90;;;;;;5066594;28;20451;-82
2022/01/19 06:18:47;;;;;;;306.47;294.63;;;4.00;99.90;;;;;;5066350;28;20470;-82
2022/01/19 06:21:14;;;;;;;305.07;293.70;;;4.00;99.90;;;;;;5076019;28;20458;-82
2022/01/19 06:23:41;;;;;;;318.80;306.63;;;3.90;99.90;;;;;;5080135;28;20474;-82
2022/01/19 06:26:08;;;;;;;287.80;277.07;;;4.00;99.90;;;;;;5079672;28;20899;-82
2022/01/19 06:28:36;;;;;;;244.00;234.47;;;4.10;99.90;;;;;;5062499;28;20474;-82
2022/01/19 06:31:03;;;;;;;230.40;221.40;;;4.00;99.90;;;;;;5062680;28;20447;-82
2022/01/19 06:33:29;;;;;;;248.50;238.77;;;3.90;99.90;;;;;;5077999;28;20485;-82
2022/01/19 06:35:56;;;;;;;261.70;251.60;;;4.00;99.90;;;;;;5075351;28;20447;-82
2022/01/19 06:38:23;;;;;;;265.23;255.03;;;3.90;99.90;;;;;;5074748;28;20509;-82
2022/01/19 06:40:50;;;;;;;264.37;254.37;;;4.00;99.90;;;;;;5082017;28;20443;-82
2022/01/19 06:43:18;;;;;;;268.57;258.77;;;4.00;99.90;;;;;;5070344;28;20448;-82
2022/01/19 06:45:46;;;;;;;292.40;281.40;;;3.90;99.90;;;;;;5063368;28;20458;-82
2022/01/19 06:48:15;;;;;;;335.87;322.77;;;3.90;99.90;;;;;;5076866;28;20470;-81
2022/01/19 06:50:56;;;;;;;357.20;343.30;;;3.90;99.90;;;;;;5075503;28;20527;-82
2022/01/19 06:53:43;;;;;;;372.67;358.27;;;3.80;99.90;;;;;;5061744;28;20519;-82
2022/01/19 06:56:32;;;;;;;384.90;370.10;;;3.90;99.90;;;;;;5069222;28;20836;-83
2022/01/19 07:02:08;;;;;;;259.10;249.30;;;3.80;99.90;;;;;;5081131;28;20958;-84
2022/01/19 07:05:16;;;;;;;;;;;;;;;;;;;;;
2022/01/19 07:07:58;;;;;;;121.23;116.13;;;3.90;99.90;;;;;;5083263;28;20503;-82
2022/01/19 07:11:18;;;;;;;118.23;112.97;;;4.00;99.90;;;;;;5077145;28;20518;-83
2022/01/19 07:14:07;;;;;;;83.73;79.73;;;4.00;99.90;;;;;;5065575;28;20471;-82
2022/01/19 07:17:24;;;;;;;51.90;48.70;;;4.10;99.90;;;;;;5064393;28;20447;-82
2022/01/19 07:20:18;;;;;;;52.27;49.03;;;4.10;99.90;;;;;;5066564;28;20467;-84
2022/01/19 07:23:13;;;;;;;55.37;51.57;;;4.00;99.90;;;;;;5065903;28;20443;-81
2022/01/19 07:26:02;;;;;;;58.30;53.90;;;4.00;99.90;;;;;;5062002;28;20474;-83
2022/01/19 07:28:46;;;;;;;78.87;73.20;;;4.10;99.90;;;;;;5061191;28;20471;-83
2022/01/19 07:31:50;;;;;;;84.30;76.70;;;4.00;99.90;;;;;;5062990;28;20443;-82
2022/01/19 07:35:00;;;;;;;;;;;;;;;;;;;;;
2022/01/19 07:37:59;;;;;;;;;;;;;;;;;;;;;
2022/01/19 07:47:10;;;;;;;59.93;56.03;;;4.00;99.90;;;;;;5063531;28;20511;-82
2022/01/19 07:59:35;;;;;;;67.83;62.97;;;4.10;99.90;;;;;;4960419;28;20477;-82
2022/01/19 08:02:11;;;;;;;88.93;83.57;;;4.10;99.90;;;;;;5037549;28;20458;-81
2022/01/19 08:04:54;;;;;;;119.50;113.63;;;4.00;99.90;;;;;;5058835;28;20447;-82
2022/01/19 08:23:24;;;;;;;154.13;146.50;;;4.00;99.90;;;;;;4908853;28;20450;-84
2022/01/19 08:25:51;;;;;;;163.43;155.07;;;4.10;99.90;;;;;;5040612;28;20447;-81
2022/01/19 08:28:54;;;;;;;144.27;136.63;;;4.10;99.90;;;;;;5055024;28;21062;-82
2022/01/19 08:31:23;;;;;;;140.13;133.53;;;4.10;99.90;;;;;;5031434;28;20463;-82
2022/01/19 08:33:53;;;;;;;94.47;89.30;;;4.00;99.90;;;;;;5054911;28;20521;-84
2022/01/19 08:45:30;;;;;;;47.83;44.43;;;4.20;99.90;;;;;;5027870;28;20451;-85
2022/01/19 08:48:17;;;;;;;40.50;37.37;;;4.40;99.90;;;;;;5051928;28;20475;-86
2022/01/19 08:51:04;;;;;;;37.23;34.20;;;4.30;99.90;;;;;;5062287;28;20455;-85
2022/01/19 08:54:14;;;;;;;35.67;32.67;;;4.30;99.90;;;;;;5073591;28;20867;-85
2022/01/19 08:56:48;;;;;;;38.10;34.90;;;4.40;99.90;;;;;;5064305;28;20462;-85
2022/01/19 08:59:35;;;;;;;32.87;30.03;;;4.40;99.90;;;;;;5053284;28;20506;-85
2022/01/19 09:05:30;;;;;;;28.80;26.30;;;4.40;99.90;;;;;;5054955;28;20943;-84
2022/01/19 09:08:10;;;;;;;27.00;24.43;;;4.40;99.90;;;;;;5073354;28;20812;-85
2022/01/19 09:10:50;;;;;;;27.50;24.90;;;4.40;99.90;;;;;;5068645;28;20451;-85
2022/01/19 09:13:26;;;;;;;28.47;25.87;;;4.40;99.90;;;;;;5060051;28;20534;-86
2022/01/19 09:16:10;;;;;;;28.57;25.83;;;4.50;99.90;;;;;;5059609;28;20474;-86
2022/01/19 09:18:38;;;;;;;27.47;24.87;;;4.60;99.90;;;;;;5056891;28;20983;-84
2022/01/19 09:24:11;;;;;;;32.50;29.23;;;4.60;99.80;;;;;;5042068;28;20216;-83
2022/01/19 09:26:39;;;;;;;34.63;31.57;;;4.80;99.70;;;;;;5062691;28;20450;-83
2022/01/19 09:29:27;;;;;;;29.83;27.00;;;4.70;99.30;;;;;;5064929;28;20467;-85
2022/01/19 09:32:13;;;;;;;30.07;27.40;;;4.80;99.50;;;;;;5065567;28;20474;-84
2022/01/19 09:35:22;;;;;;;;;;;;;;;;;;;;;
2022/01/19 09:44:45;;;;;;;41.77;38.67;;;4.90;99.90;;;;;;5020084;28;20493;-84
2022/01/19 09:47:41;;;;;;;34.73;31.83;;;5.00;99.90;;;;;;5048305;28;20455;-84
2022/01/19 09:50:45;;;;;;;;;;;;;;;;;;;;;
2022/01/19 09:53:44;;;;;;;27.30;24.70;;;5.00;99.60;;;;;;5055551;28;20459;-83
2022/01/19 09:56:30;;;;;;;33.40;30.80;;;4.90;98.20;;;;;;5055928;28;20451;-83
2022/01/19 10:01:54;;;;;;;32.50;29.67;;;4.80;99.20;;;;;;5051121;28;20452;-83
2022/01/19 10:04:27;;;;;;;30.50;27.83;;;4.90;98.80;;;;;;5058130;28;20439;-83
2022/01/19 10:07:22;;;;;;;30.27;27.47;;;4.80;98.80;;;;;;5058314;28;20493;-83
2022/01/19 10:09:54;;;;;;;25.93;23.30;;;4.80;98.20;;;;;;5058777;28;20482;-83
2022/01/19 10:18:06;;;;;;;23.70;20.17;;;4.80;98.20;;;;;;5058593;28;20947;-82
2022/01/19 10:20:33;;;;;;;24.43;21.97;;;4.90;96.50;;;;;;5060776;28;20467;-82
2022/01/19 10:22:59;;;;;;;26.03;23.20;;;5.10;97.40;;;;;;5068283;28;20454;-83
2022/01/19 10:25:49;;;;;;;32.57;27.30;;;5.10;96.20;;;;;;5080863;28;20453;-83
2022/01/19 10:28:17;;;;;;;31.57;24.10;;;5.20;96.20;;;;;;5061932;28;20471;-84
2022/01/19 10:30:44;;;;;;;21.60;19.30;;;5.30;95.20;;;;;;5065140;28;20447;-83
2022/01/19 10:33:18;;;;;;;26.87;21.00;;;5.40;95.10;;;;;;5076470;28;20458;-82
2022/01/19 10:35:46;;;;;;;32.40;21.47;;;5.40;95.10;;;;;;5071290;28;20497;-82
2022/01/19 10:38:16;;;;;;;22.40;20.00;;;5.40;95.10;;;;;;5059334;28;20492;-82
2022/01/19 10:41:04;;;;;;;24.50;19.50;;;5.50;93.80;;;;;;5075684;28;20442;-83
2022/01/19 10:43:36;;;;;;;23.50;19.10;;;5.60;93.90;;;;;;5081375;28;20949;-84
2022/01/19 10:46:25;;;;;;;23.60;19.57;;;5.50;92.70;;;;;;5064365;28;20892;-82
2022/01/19 10:49:01;;;;;;;26.87;21.17;;;5.50;93.00;;;;;;5064507;28;20495;-82
2022/01/19 10:51:32;;;;;;;24.30;19.70;;;5.50;94.50;;;;;;5069450;28;20454;-82
2022/01/19 10:54:11;;;;;;;21.67;19.07;;;5.50;93.90;;;;;;5081531;28;20446;-82
2022/01/19 10:56:40;;;;;;;24.00;20.07;;;5.40;94.00;;;;;;5068610;28;20450;-83
2022/01/19 10:59:11;;;;;;;22.10;18.73;;;5.30;94.70;;;;;;5069433;28;20478;-83
2022/01/19 11:01:43;;;;;;;22.90;20.10;;;5.20;94.40;;;;;;5074455;28;20470;-82
2022/01/19 11:04:24;;;;;;;22.60;19.70;;;5.20;95.30;;;;;;5063447;28;20529;-82
2022/01/19 11:06:53;;;;;;;21.80;18.63;;;5.20;94.40;;;;;;5064506;28;20533;-83
2022/01/19 11:09:24;;;;;;;24.40;21.40;;;5.20;94.40;;;;;;5062616;28;20494;-83
2022/01/19 11:11:52;;;;;;;25.90;19.90;;;5.20;94.70;;;;;;5078259;28;20457;-82
2022/01/19 11:14:37;;;;;;;22.80;20.60;;;5.10;94.30;;;;;;5070407;28;20451;-81
2022/01/19 11:17:05;;;;;;;23.20;19.60;;;5.10;95.00;;;;;;5059846;28;20443;-82
2022/01/19 11:20:11;;;;;;;26.60;22.77;;;5.10;94.10;;;;;;5062971;28;20466;-85
2022/01/19 11:26:35;;;;;;;26.60;23.80;;;5.20;95.00;;;;;;5065467;28;20454;-83
2022/01/19 11:32:46;;;;;;;27.93;21.80;;;5.40;94.70;;;;;;5048581;28;20493;-83
2022/01/19 11:44:47;;;;;;;25.00;20.20;;;5.60;93.30;;;;;;5052849;28;20487;-85
2022/01/19 11:47:45;;;;;;;25.40;20.83;;;5.50;93.70;;;;;;5056539;28;20458;-84
2022/01/19 11:50:32;;;;;;;24.13;19.80;;;5.50;94.00;;;;;;5058549;28;20535;-84
2022/01/19 11:53:47;;;;;;;;;;;;;;;;;;;;;
2022/01/19 11:57:24;;;;;;;;;;;;;;;;;;;;;
2022/01/19 12:00:44;;;;;;;;;;;;;;;;;;;;;
2022/01/19 12:13:54;;;;;;;;;;;;;;;;;;;;;
2022/01/19 12:26:00;;;;;;;29.13;22.93;;;5.10;92.70;;;;;;5023523;28;20486;-84
2022/01/19 12:28:55;;;;;;;31.27;23.20;;;5.20;92.90;;;;;;4984682;28;20484;-84
2022/01/19 12:31:48;;;;;;;29.07;21.80;;;5.10;93.30;;;;;;5069419;28;20476;-83
2022/01/19 12:38:00;;;;;;;35.83;23.47;;;5.30;92.80;;;;;;5074098;28;20427;-83
2022/01/19 12:40:49;;;;;;;26.57;21.23;;;5.20;92.70;;;;;;4906540;29;21059;-83
2022/01/19 12:49:54;;;;;;;32.93;24.97;;;5.30;92.90;;;;;;5054009;28;20538;-84
2022/01/19 12:52:53;;;;;;;38.87;28.90;;;5.20;93.20;;;;;;5056296;28;20469;-84
2022/01/19 12:56:01;;;;;;;41.60;31.03;;;5.20;92.90;;;;;;5056370;28;21013;-84
2022/01/19 12:58:55;;;;;;;34.13;24.40;;;5.30;93.00;;;;;;5057827;28;20617;-85
2022/01/19 13:01:25;;;;;;;34.70;25.90;;;5.30;92.60;;;;;;5051760;28;20467;-83
2022/01/19 13:04:24;;;;;;;34.23;26.10;;;5.20;92.60;;;;;;5057270;28;20883;-84
2022/01/19 13:07:08;;;;;;;;;;;;;;;;;;;;;
2022/01/19 13:09:42;;;;;;;32.47;23.17;;;5.30;92.60;;;;;;5052760;28;20490;-84
2022/01/19 13:12:17;;;;;;;47.40;33.20;;;5.30;92.60;;;;;;5054101;28;20451;-85
2022/01/19 13:14:44;;;;;;;35.70;27.50;;;5.40;92.50;;;;;;5053821;28;20940;-85
2022/01/19 13:17:49;;;;;;;35.00;26.93;;;5.50;92.80;;;;;;5054069;28;21135;-84
2022/01/19 13:20:20;;;;;;;32.93;27.23;;;5.40;92.10;;;;;;5054436;28;20455;-84
2022/01/19 13:26:31;;;;;;;29.13;20.87;;;5.50;91.50;;;;;;4993874;28;20439;-84
2022/01/19 13:32:38;;;;;;;29.47;21.57;;;5.30;92.00;;;;;;5010689;28;20457;-86
2022/01/19 13:35:49;;;;;;;44.47;31.50;;;5.30;92.00;;;;;;4956152;28;20454;-86
2022/01/19 13:39:07;;;;;;;36.30;26.87;;;5.30;92.70;;;;;;4997924;28;20469;-85
2022/01/19 14:01:59;;;;;;;;;;;;;;;;;;;;;
2022/01/19 14:31:52;;;;;;;;;;;;;;;;;;;;;
2022/01/19 15:00:37;;;;;;;384.60;367.03;;;4.50;99.90;;;;;;4972104;28;20455;-83
2022/01/19 15:06:29;;;;;;;444.53;424.87;;;4.50;99.90;;;;;;4843037;29;20469;-83
2022/01/19 15:23:07;;;;;;;;;;;;;;;;;;;;;
2022/01/19 15:26:35;;;;;;;;;;;;;;;;;;;;;
2022/01/19 15:29:32;;;;;;;625.10;589.30;;;4.50;99.90;;;;;;5006445;28;20472;-83
2022/01/19 15:32:08;;;;;;;634.03;596.53;;;4.30;99.90;;;;;;5007377;28;20452;-83
2022/01/19 15:35:01;;;;;;;;;;;;;;;;;;;;;
2022/01/19 15:37:57;;;;;;;634.20;594.37;;;4.40;99.90;;;;;;5059466;28;20475;-82
2022/01/19 15:50:35;;;;;;;;;;;;;;;;;;;;;
2022/01/19 15:56:57;;;;;;;679.10;634.10;;;4.30;99.90;;;;;;4921732;29;20476;-82
2022/01/19 16:03:11;;;;;;;697.70;647.90;;;4.30;99.90;;;;;;5008668;28;20553;-82
2022/01/19 16:06:42;;;;;;;;;;;;;;;;;;;;;
2022/01/19 16:15:47;;;;;;;725.83;670.87;;;4.30;99.90;;;;;;5029544;28;20451;-82
2022/01/19 16:18:19;;;;;;;731.47;675.70;;;4.30;99.90;;;;;;5056821;28;20533;-83
2022/01/19 16:20:49;;;;;;;733.53;677.37;;;4.30;99.90;;;;;;5057187;28;20457;-82
2022/01/19 16:26:10;;;;;;;728.93;674.80;;;4.40;99.90;;;;;;5050669;28;20483;-82
2022/01/19 16:28:39;;;;;;;725.20;672.13;;;4.40;99.90;;;;;;5038261;28;20941;-82
2022/01/19 16:31:08;;;;;;;729.83;675.90;;;4.30;99.90;;;;;;5046878;28;20451;-82
2022/01/19 16:33:35;;;;;;;734.80;680.90;;;4.40;99.90;;;;;;5058508;28;20885;-82
2022/01/19 16:36:03;;;;;;;719.93;669.17;;;4.50;99.90;;;;;;5050244;28;20902;-83
2022/01/19 16:38:54;;;;;;;728.80;675.77;;;4.40;99.90;;;;;;5038646;28;20504;-82
2022/01/19 16:41:48;;;;;;;724.57;672.57;;;4.50;99.90;;;;;;5046675;28;20460;-82
2022/01/19 16:46:59;;;;;;;767.93;711.27;;;4.40;99.90;;;;;;5050809;28;20985;-83
2022/01/19 16:49:42;;;;;;;756.13;700.23;;;4.40;99.90;;;;;;5049694;28;20472;-83
2022/01/19 16:52:09;;;;;;;760.63;703.17;;;4.40;99.90;;;;;;5037839;28;20455;-83
2022/01/19 16:54:47;;;;;;;770.93;711.90;;;4.40;99.90;;;;;;5046703;28;20448;-83
2022/01/19 16:57:34;;;;;;;771.37;711.67;;;4.50;99.90;;;;;;5049828;28;20463;-84
2022/01/19 17:00:17;;;;;;;;;;;;;;;;;;;;;
2022/01/19 17:03:07;;;;;;;778.57;720.37;;;4.50;99.90;;;;;;5041418;28;20948;-83
2022/01/19 17:05:49;;;;;;;;;;;;;;;;;;;;;
2022/01/19 17:08:26;;;;;;;760.73;699.47;;;4.60;99.90;;;;;;5039427;28;20479;-83
2022/01/19 17:11:19;;;;;;;735.90;675.40;;;4.50;99.90;;;;;;5037729;28;20816;-82
2022/01/19 17:13:55;;;;;;;726.23;665.03;;;4.60;99.90;;;;;;5038022;28;20535;-82
2022/01/19 17:16:30;;;;;;;724.47;661.60;;;4.60;99.90;;;;;;5036989;28;20480;-82
2022/01/19 17:18:58;;;;;;;707.27;647.90;;;4.60;99.90;;;;;;5042282;28;20565;-82
2022/01/19 17:21:25;;;;;;;708.00;649.50;;;4.60;99.90;;;;;;5058640;28;20542;-83
2022/01/19 17:23:55;;;;;;;704.97;645.50;;;4.70;99.90;;;;;;5058508;28;20521;-83
2022/01/19 17:26:22;;;;;;;700.03;641.27;;;4.70;99.90;;;;;;5059776;28;20474;-83
2022/01/19 17:28:50;;;;;;;740.97;676.87;;;4.70;99.90;;;;;;5036863;28;20482;-82
2022/01/19 17:31:16;;;;;;;728.23;669.37;;;4.70;99.90;;;;;;5040543;28;20474;-82
2022/01/19 17:33:44;;;;;;;698.77;640.47;;;4.60;99.90;;;;;;5054924;28;20459;-83
2022/01/19 17:36:12;;;;;;;707.47;646.67;;;4.70;99.90;;;;;;5039645;28;20448;-82
2022/01/19 17:38:39;;;;;;;714.80;653.27;;;4.70;99.90;;;;;;5036662;28;20480;-83
2022/01/19 17:41:06;;;;;;;711.70;652.67;;;4.60;99.90;;;;;;5055107;28;20490;-83
2022/01/19 17:43:33;;;;;;;705.30;646.23;;;4.60;99.90;;;;;;5057249;28;20451;-83
2022/01/19 17:46:04;;;;;;;697.63;640.27;;;4.80;99.90;;;;;;5053935;28;20809;-82
2022/01/19 17:48:51;;;;;;;710.27;650.37;;;4.70;99.90;;;;;;5044882;28;20473;-83
2022/01/19 17:54:03;;;;;;;709.47;647.07;;;4.70;99.90;;;;;;5037588;28;20504;-83
2022/01/19 17:56:31;;;;;;;697.80;637.77;;;4.80;99.90;;;;;;5053460;28;20467;-83
2022/01/19 17:58:58;;;;;;;696.43;636.93;;;4.70;99.90;;;;;;5057122;28;20475;-83
2022/01/19 18:01:27;;;;;;;697.63;638.07;;;4.80;99.90;;;;;;5039418;28;20974;-83
2022/01/19 18:03:56;;;;;;;689.17;629.03;;;4.80;99.90;;;;;;5037952;28;20460;-83
2022/01/19 18:06:25;;;;;;;690.00;629.50;;;4.70;99.90;;;;;;5051566;28;20505;-83
2022/01/19 18:08:52;;;;;;;686.23;625.97;;;4.90;99.90;;;;;;5043774;28;20500;-83
2022/01/19 18:11:21;;;;;;;680.07;619.37;;;4.80;99.90;;;;;;5056490;28;20458;-82
2022/01/19 18:13:48;;;;;;;681.07;621.40;;;4.90;99.90;;;;;;5042096;28;20476;-82
2022/01/19 18:16:15;;;;;;;708.37;645.90;;;4.90;99.90;;;;;;5053439;28;20451;-82
2022/01/19 18:18:43;;;;;;;691.53;629.80;;;4.90;99.90;;;;;;5054406;28;20470;-82
2022/01/19 18:21:10;;;;;;;683.47;624.37;;;5.00;99.90;;;;;;5054561;28;20459;-82
2022/01/19 18:23:38;;;;;;;675.37;617.87;;;5.00;99.90;;;;;;5046496;28;20464;-83
2022/01/19 18:26:06;;;;;;;695.87;635.60;;;5.00;99.90;;;;;;5035120;28;20861;-83
2022/01/19 18:28:32;;;;;;;691.80;633.53;;;5.10;99.90;;;;;;5044706;28;21030;-82
2022/01/19 18:30:59;;;;;;;687.83;629.47;;;5.20;99.90;;;;;;5039190;28;20474;-83
2022/01/19 18:33:27;;;;;;;679.50;623.63;;;5.10;99.90;;;;;;5050458;28;20447;-82
2022/01/19 18:35:54;;;;;;;693.77;635.80;;;5.10;99.90;;;;;;5041133;28;20452;-85
2022/01/19 18:38:23;;;;;;;688.97;631.77;;;5.20;99.90;;;;;;5043849;28;20597;-82
2022/01/19 18:40:52;;;;;;;692.57;633.47;;;5.30;99.90;;;;;;5056295;28;20451;-83
2022/01/19 18:43:19;;;;;;;689.90;632.70;;;5.20;99.90;;;;;;5056015;28;20458;-83
2022/01/19 18:45:45;;;;;;;701.93;641.77;;;5.20;99.90;;;;;;5045186;28;20448;-82
2022/01/19 18:48:13;;;;;;;691.63;632.20;;;5.20;99.90;;;;;;5044090;28;20479;-83
2022/01/19 18:50:40;;;;;;;691.17;632.17;;;5.30;99.90;;;;;;5056395;28;20483;-82
2022/01/19 18:53:07;;;;;;;695.77;636.53;;;5.20;99.90;;;;;;5046939;28;20448;-82
2022/01/19 18:55:35;;;;;;;707.13;646.17;;;5.30;99.90;;;;;;5036613;28;20459;-82
2022/01/19 18:58:04;;;;;;;740.73;676.23;;;5.30;99.90;;;;;;5047902;28;20471;-82
2022/01/19 19:00:32;;;;;;;712.17;650.70;;;5.30;99.90;;;;;;5060398;28;20451;-82
2022/01/19 19:02:59;;;;;;;723.07;659.47;;;5.30;99.90;;;;;;5053906;28;20523;-82
2022/01/19 19:05:26;;;;;;;732.87;668.00;;;5.30;99.90;;;;;;5040558;28;20456;-83